Time;durP1;ratioP1;P1;durP2;ratioP2;P2;SDS_P1;SDS_P2;PMS_P1;PMS_P2;Temp;Humidity;BMP_temperature;BMP_pressure;BME280_temperature;BME280_humidity;BME280_pressure;Samples;Min_cycle;Max_cycle;Signal;HPM_P1;HPM_P2
2021/07/22 00:00:52;;;;;;;5.32;3.60;;;23.30;69.70;;;;;;5034138;28;20109;-70
2021/07/22 00:03:17;;;;;;;6.55;4.00;;;23.30;69.50;;;;;;5034303;28;20037;-71
2021/07/22 00:05:43;;;;;;;5.20;3.80;;;23.30;69.70;;;;;;5034430;28;20027;-70
2021/07/22 00:08:11;;;;;;;5.28;3.53;;;23.20;69.60;;;;;;5033640;28;20071;-70
2021/07/22 00:10:40;;;;;;;5.70;3.90;;;23.20;69.50;;;;;;5033784;28;20387;-71
2021/07/22 00:13:06;;;;;;;6.18;3.80;;;23.20;69.70;;;;;;5033493;28;20450;-70
2021/07/22 00:15:33;;;;;;;3.40;3.10;;;23.20;69.80;;;;;;5033799;28;20484;-71
2021/07/22 00:17:58;;;;;;;6.60;3.30;;;23.20;69.90;;;;;;5033808;28;20096;-71
2021/07/22 00:20:24;;;;;;;7.47;3.97;;;23.20;69.60;;;;;;5033821;28;20410;-71
2021/07/22 00:22:50;;;;;;;7.50;3.75;;;23.20;69.60;;;;;;5033542;28;20033;-71
2021/07/22 00:25:16;;;;;;;4.13;3.60;;;23.20;69.50;;;;;;5033562;28;20069;-71
2021/07/22 00:27:42;;;;;;;5.90;3.30;;;23.20;69.20;;;;;;5033414;28;20040;-70
2021/07/22 00:30:08;;;;;;;7.07;3.65;;;23.20;69.20;;;;;;5033426;28;20029;-71
2021/07/22 00:32:35;;;;;;;5.60;3.63;;;23.20;69.30;;;;;;5033561;28;20033;-71
2021/07/22 00:35:01;;;;;;;3.85;3.35;;;23.20;69.50;;;;;;5033103;28;20021;-71
2021/07/22 00:37:26;;;;;;;5.38;3.30;;;23.20;69.30;;;;;;5033627;28;20060;-71
2021/07/22 00:39:52;;;;;;;6.45;3.47;;;23.10;69.00;;;;;;5033572;28;20033;-70
2021/07/22 00:42:18;;;;;;;5.45;3.30;;;23.10;69.00;;;;;;5032855;28;20392;-71
2021/07/22 00:44:44;;;;;;;4.68;3.22;;;23.00;69.20;;;;;;5033452;28;20017;-71
2021/07/22 00:47:09;;;;;;;6.25;3.55;;;23.00;69.10;;;;;;5033351;28;20029;-71
2021/07/22 00:49:35;;;;;;;4.10;3.33;;;23.00;69.10;;;;;;5032997;28;20021;-71
2021/07/22 00:52:01;;;;;;;5.22;3.78;;;22.90;69.30;;;;;;5033345;28;20029;-71
2021/07/22 00:54:26;;;;;;;5.70;3.40;;;22.90;69.40;;;;;;5033333;28;20065;-71
2021/07/22 00:56:52;;;;;;;5.57;3.40;;;22.90;69.50;;;;;;5033464;28;20029;-71
2021/07/22 00:59:18;;;;;;;8.05;3.55;;;22.80;69.50;;;;;;5032914;28;20506;-70
2021/07/22 01:01:43;;;;;;;3.42;3.08;;;22.80;69.70;;;;;;5032556;28;20371;-71
2021/07/22 01:04:10;;;;;;;7.85;3.33;;;22.80;69.60;;;;;;5032832;28;20518;-71
2021/07/22 01:06:36;;;;;;;3.75;3.20;;;22.80;69.70;;;;;;5033326;28;20033;-71
2021/07/22 01:09:01;;;;;;;4.78;3.15;;;22.70;69.70;;;;;;5033135;28;20051;-71
2021/07/22 01:14:49;;;;;;;5.47;3.30;;;22.80;69.60;;;;;;5033095;28;20029;-70
2021/07/22 01:17:42;;;;;;;4.03;3.10;;;22.70;69.70;;;;;;5033048;28;20037;-71
2021/07/22 01:20:21;;;;;;;3.53;3.10;;;22.80;69.40;;;;;;5033097;28;20407;-71
2021/07/22 01:22:48;;;;;;;5.60;3.20;;;22.80;69.60;;;;;;5033182;28;20082;-71
2021/07/22 01:25:15;;;;;;;4.43;3.10;;;22.80;69.30;;;;;;5033200;28;20029;-71
2021/07/22 01:27:42;;;;;;;5.85;3.30;;;22.80;69.30;;;;;;5033024;28;20384;-71
2021/07/22 01:30:08;;;;;;;3.97;3.15;;;22.80;69.60;;;;;;5032746;28;20087;-71
2021/07/22 01:32:34;;;;;;;4.63;3.05;;;22.80;69.30;;;;;;5032959;28;20352;-71
2021/07/22 01:35:00;;;;;;;3.72;3.10;;;22.80;69.40;;;;;;5032967;28;20033;-70
2021/07/22 01:37:25;;;;;;;5.60;3.35;;;22.70;69.50;;;;;;5033472;28;20476;-71
2021/07/22 01:39:51;;;;;;;5.25;3.63;;;22.80;69.60;;;;;;5032939;28;20390;-71
2021/07/22 01:42:17;;;;;;;4.00;2.92;;;22.80;69.40;;;;;;5032813;28;20052;-71
2021/07/22 01:44:43;;;;;;;6.28;3.13;;;22.80;69.30;;;;;;5032911;28;20037;-71
2021/07/22 01:47:08;;;;;;;3.72;3.10;;;22.80;69.40;;;;;;5032525;28;20025;-71
2021/07/22 01:49:34;;;;;;;4.72;3.17;;;22.80;69.00;;;;;;5032922;28;20052;-71
2021/07/22 01:52:01;;;;;;;7.10;3.53;;;22.80;68.80;;;;;;5033091;28;20064;-71
2021/07/22 01:54:27;;;;;;;4.82;3.30;;;22.80;69.10;;;;;;5033691;28;20033;-71
2021/07/22 01:56:55;;;;;;;4.25;2.92;;;22.80;69.00;;;;;;5036731;28;20049;-71
2021/07/22 01:59:21;;;;;;;4.70;3.10;;;22.80;68.80;;;;;;5036078;28;20049;-71
2021/07/22 02:01:46;;;;;;;6.15;3.00;;;22.80;68.10;;;;;;5036344;28;20046;-71
2021/07/22 02:04:12;;;;;;;5.90;2.67;;;22.80;67.50;;;;;;5036494;28;20391;-71
2021/07/22 02:06:39;;;;;;;4.10;2.72;;;22.70;67.00;;;;;;5036120;28;20497;-70
2021/07/22 02:09:05;;;;;;;2.80;2.60;;;22.70;66.80;;;;;;5036201;28;20104;-71
2021/07/22 02:11:30;;;;;;;4.00;3.13;;;22.60;67.20;;;;;;5036186;28;20164;-71
2021/07/22 02:13:56;;;;;;;4.40;2.78;;;22.60;67.10;;;;;;5036261;28;20033;-71
2021/07/22 02:16:21;;;;;;;5.47;3.50;;;22.60;66.90;;;;;;5035802;28;20204;-71
2021/07/22 02:18:48;;;;;;;5.10;2.80;;;22.50;66.70;;;;;;5036161;28;20464;-71
2021/07/22 02:21:14;;;;;;;3.92;2.90;;;22.50;66.60;;;;;;5036103;28;20029;-71
2021/07/22 02:23:40;;;;;;;5.72;2.58;;;22.40;66.90;;;;;;5035674;28;20067;-71
2021/07/22 02:26:06;;;;;;;4.85;2.35;;;22.40;66.90;;;;;;5035917;28;20100;-71
2021/07/22 02:28:32;;;;;;;3.13;2.83;;;22.40;67.10;;;;;;5035734;28;20033;-71
2021/07/22 02:30:59;;;;;;;3.72;2.65;;;22.40;67.20;;;;;;5035793;28;20033;-71
2021/07/22 02:33:25;;;;;;;3.10;2.42;;;22.40;67.50;;;;;;5035754;28;20094;-71
2021/07/22 02:35:51;;;;;;;3.88;3.05;;;22.40;67.60;;;;;;5035750;28;20128;-71
2021/07/22 02:38:16;;;;;;;5.00;2.95;;;22.40;67.80;;;;;;5035657;28;20511;-71
2021/07/22 02:40:42;;;;;;;6.80;2.85;;;22.40;67.80;;;;;;5035334;28;20079;-71
2021/07/22 02:43:08;;;;;;;4.95;2.55;;;22.40;67.60;;;;;;5035585;28;20108;-71
2021/07/22 02:45:37;;;;;;;4.45;2.78;;;22.40;67.50;;;;;;5035651;28;20070;-71
2021/07/22 02:48:03;;;;;;;3.42;2.97;;;22.30;67.60;;;;;;5035409;28;20449;-71
2021/07/22 02:50:29;;;;;;;3.80;2.83;;;22.30;67.80;;;;;;5035806;28;20367;-71
2021/07/22 02:52:55;;;;;;;4.97;2.85;;;22.20;67.90;;;;;;5035439;28;20036;-71
2021/07/22 02:55:20;;;;;;;3.40;2.85;;;22.20;68.30;;;;;;5035811;28;20049;-70
2021/07/22 02:57:46;;;;;;;3.95;2.50;;;22.20;68.10;;;;;;5035322;28;20531;-70
2021/07/22 03:00:12;;;;;;;5.35;3.05;;;22.20;68.30;;;;;;5035301;28;20040;-71
2021/07/22 03:02:38;;;;;;;3.40;2.70;;;22.20;68.40;;;;;;5035830;28;20109;-70
2021/07/22 03:05:05;;;;;;;4.93;2.78;;;22.10;68.60;;;;;;5034795;28;20053;-70
2021/07/22 03:07:30;;;;;;;3.42;3.08;;;22.20;68.60;;;;;;5034809;28;20538;-70
2021/07/22 03:09:57;;;;;;;5.10;3.13;;;22.30;68.80;;;;;;5035145;28;20025;-70
2021/07/22 03:12:23;;;;;;;3.47;2.85;;;22.20;68.90;;;;;;5034976;28;20083;-71
2021/07/22 03:14:49;;;;;;;4.53;3.10;;;22.30;68.80;;;;;;5035334;28;20034;-70
2021/07/22 03:17:15;;;;;;;4.72;3.08;;;22.30;68.70;;;;;;5034985;28;20494;-71
2021/07/22 03:19:41;;;;;;;5.78;2.90;;;22.30;68.70;;;;;;5034837;28;20025;-71
2021/07/22 03:22:06;;;;;;;5.28;3.35;;;22.30;68.80;;;;;;5034849;28;20078;-71
2021/07/22 03:24:32;;;;;;;4.43;2.70;;;22.40;68.70;;;;;;5034699;28;20041;-71
2021/07/22 03:26:58;;;;;;;4.65;2.90;;;22.40;68.50;;;;;;5034778;28;20037;-71
2021/07/22 03:29:24;;;;;;;6.90;3.40;;;22.30;68.60;;;;;;5034744;28;20025;-71
2021/07/22 03:31:49;;;;;;;3.85;2.78;;;22.40;68.50;;;;;;5034347;28;20119;-71
2021/07/22 03:34:17;;;;;;;7.28;3.13;;;22.40;68.50;;;;;;5034527;28;20112;-71
2021/07/22 03:36:44;;;;;;;8.23;3.30;;;22.30;68.50;;;;;;5034661;28;20029;-71
2021/07/22 03:39:13;;;;;;;4.65;3.00;;;22.30;68.70;;;;;;5034456;28;20025;-71
2021/07/22 03:41:47;;;;;;;4.78;3.45;;;22.30;68.80;;;;;;5034549;28;20383;-71
2021/07/22 03:44:13;;;;;;;6.88;3.67;;;22.30;68.80;;;;;;5034468;28;20032;-71
2021/07/22 03:46:39;;;;;;;6.03;2.80;;;22.40;68.90;;;;;;5034435;28;20101;-71
2021/07/22 03:49:05;;;;;;;6.20;3.03;;;22.30;68.70;;;;;;5034186;28;20052;-72
2021/07/22 03:51:30;;;;;;;5.75;3.22;;;22.30;68.90;;;;;;5033962;28;20030;-71
2021/07/22 03:53:56;;;;;;;4.43;3.38;;;22.40;68.90;;;;;;5033981;28;20439;-71
2021/07/22 03:56:22;;;;;;;8.02;3.58;;;22.40;68.90;;;;;;5033907;28;20025;-71
2021/07/22 03:58:47;;;;;;;3.65;3.30;;;22.40;68.60;;;;;;5033994;28;20026;-71
2021/07/22 04:01:13;;;;;;;6.70;3.63;;;22.40;68.60;;;;;;5033836;28;20041;-71
2021/07/22 04:03:39;;;;;;;4.18;3.30;;;22.40;68.40;;;;;;5034241;28;20535;-71
2021/07/22 04:06:04;;;;;;;7.68;3.53;;;22.30;68.70;;;;;;5034112;28;20080;-71
2021/07/22 04:08:30;;;;;;;5.05;3.35;;;22.30;68.50;;;;;;5033951;28;20025;-71
2021/07/22 04:10:56;;;;;;;7.13;3.88;;;22.20;68.60;;;;;;5033927;28;20030;-71
2021/07/22 04:13:22;;;;;;;3.30;3.00;;;22.30;68.80;;;;;;5033750;28;20040;-71
2021/07/22 04:15:47;;;;;;;6.85;3.85;;;22.20;68.80;;;;;;5033941;28;20032;-71
2021/07/22 04:18:13;;;;;;;6.63;3.47;;;22.30;69.00;;;;;;5032984;28;20061;-70
2021/07/22 04:20:39;;;;;;;10.85;4.03;;;22.30;68.70;;;;;;5034037;28;20026;-70
2021/07/22 04:23:05;;;;;;;5.18;3.58;;;22.30;68.50;;;;;;5033468;28;20163;-70
2021/07/22 04:25:30;;;;;;;5.93;4.00;;;22.30;68.50;;;;;;5033951;28;20108;-70
2021/07/22 04:27:56;;;;;;;5.38;3.60;;;22.30;68.60;;;;;;5033890;28;20025;-70
2021/07/22 04:30:22;;;;;;;5.47;3.72;;;22.40;68.80;;;;;;5033594;28;20029;-70
2021/07/22 04:32:47;;;;;;;5.00;3.40;;;22.40;68.40;;;;;;5033623;28;20029;-70
2021/07/22 04:35:14;;;;;;;4.75;3.63;;;22.40;68.50;;;;;;5033499;28;20464;-71
2021/07/22 04:37:40;;;;;;;9.25;3.72;;;22.40;68.50;;;;;;5033283;28;20080;-70
2021/07/22 04:40:06;;;;;;;6.55;3.92;;;22.40;68.60;;;;;;5033106;28;20033;-71
2021/07/22 04:42:36;;;;;;;11.35;4.38;;;22.50;68.50;;;;;;5033343;28;20049;-72
2021/07/22 04:45:02;;;;;;;5.43;3.50;;;22.60;68.30;;;;;;5033230;28;20491;-71
2021/07/22 04:47:28;;;;;;;4.60;3.83;;;22.50;68.20;;;;;;5033599;28;20382;-71
2021/07/22 04:49:54;;;;;;;5.03;3.85;;;22.50;68.10;;;;;;5033105;28;20121;-70
2021/07/22 04:52:19;;;;;;;5.40;3.90;;;22.50;68.00;;;;;;5032909;28;20025;-71
2021/07/22 04:54:45;;;;;;;8.77;3.83;;;22.50;68.00;;;;;;5033237;28;20112;-71
2021/07/22 04:57:11;;;;;;;5.18;3.65;;;22.50;67.90;;;;;;5031898;28;20026;-71
2021/07/22 04:59:37;;;;;;;6.57;4.03;;;22.60;68.00;;;;;;5033295;28;20025;-70
2021/07/22 05:02:03;;;;;;;8.20;4.95;;;22.60;68.10;;;;;;5034375;28;20049;-71
2021/07/22 05:04:29;;;;;;;6.45;3.67;;;22.60;67.90;;;;;;5042435;28;20429;-71
2021/07/22 05:06:56;;;;;;;5.47;3.83;;;22.60;67.90;;;;;;5032719;28;20025;-72
2021/07/22 05:09:21;;;;;;;7.88;4.10;;;22.60;67.90;;;;;;5040818;28;20017;-72
2021/07/22 05:11:47;;;;;;;7.25;3.95;;;22.60;67.80;;;;;;5044481;28;20371;-72
2021/07/22 05:14:13;;;;;;;4.57;4.00;;;22.70;67.80;;;;;;5041781;28;20029;-72
2021/07/22 05:16:38;;;;;;;4.80;3.50;;;22.70;67.60;;;;;;5032620;28;20021;-71
2021/07/22 05:19:04;;;;;;;6.13;3.83;;;22.70;67.50;;;;;;5033335;28;20124;-72
2021/07/22 05:21:30;;;;;;;6.05;4.10;;;22.70;67.50;;;;;;5033155;28;20060;-72
2021/07/22 05:23:55;;;;;;;11.68;4.75;;;22.70;67.50;;;;;;5033480;28;20039;-71
2021/07/22 05:26:21;;;;;;;5.05;3.92;;;22.70;67.80;;;;;;5033108;28;20353;-72
2021/07/22 05:28:47;;;;;;;7.88;4.55;;;22.70;67.90;;;;;;5034270;28;20028;-71
2021/07/22 05:31:12;;;;;;;6.20;4.20;;;22.80;67.70;;;;;;5036846;28;20463;-71
2021/07/22 05:33:40;;;;;;;5.68;4.20;;;22.80;67.70;;;;;;5036794;28;20037;-72
2021/07/22 05:36:07;;;;;;;4.95;4.13;;;22.80;67.30;;;;;;5037106;28;20021;-72
2021/07/22 05:38:35;;;;;;;4.07;3.70;;;22.80;67.40;;;;;;5036358;28;20048;-72
2021/07/22 05:41:03;;;;;;;8.65;4.30;;;22.80;67.40;;;;;;5036383;28;20033;-72
2021/07/22 05:43:29;;;;;;;9.52;4.43;;;22.80;67.30;;;;;;5036562;28;20097;-72
2021/07/22 05:45:54;;;;;;;4.30;3.78;;;22.80;67.30;;;;;;5036651;28;20045;-72
2021/07/22 05:48:20;;;;;;;6.93;4.07;;;22.80;67.10;;;;;;5036257;28;20030;-70
2021/07/22 05:50:46;;;;;;;5.75;3.50;;;22.80;67.30;;;;;;5036647;28;20036;-70
2021/07/22 05:53:12;;;;;;;4.70;4.05;;;22.80;67.20;;;;;;5036003;28;20042;-73
2021/07/22 05:55:38;;;;;;;6.50;4.25;;;22.90;67.00;;;;;;5018756;28;20537;-71
2021/07/22 05:58:04;;;;;;;9.88;4.30;;;23.00;66.80;;;;;;5036496;28;20034;-71
2021/07/22 06:00:30;;;;;;;7.55;4.15;;;23.00;66.70;;;;;;5036439;28;20026;-71
2021/07/22 06:02:55;;;;;;;6.63;3.92;;;23.10;66.60;;;;;;5036731;28;20112;-71
2021/07/22 06:05:21;;;;;;;7.57;4.00;;;23.10;66.30;;;;;;5035756;28;20057;-71
2021/07/22 06:07:47;;;;;;;6.13;3.83;;;23.20;66.30;;;;;;5035838;28;20025;-71
2021/07/22 06:10:13;;;;;;;9.77;4.18;;;23.20;66.10;;;;;;5035692;28;20034;-71
2021/07/22 06:12:42;;;;;;;7.93;3.90;;;23.20;66.20;;;;;;5035749;28;20033;-71
2021/07/22 06:15:11;;;;;;;5.50;4.20;;;23.30;66.40;;;;;;5036079;28;20025;-71
2021/07/22 06:17:37;;;;;;;10.00;4.43;;;23.20;66.30;;;;;;5035973;28;20049;-71
2021/07/22 06:20:04;;;;;;;8.80;4.53;;;23.30;66.40;;;;;;5036013;28;20426;-71
2021/07/22 06:22:30;;;;;;;9.05;4.43;;;23.30;66.50;;;;;;5035814;28;20033;-71
2021/07/22 06:24:57;;;;;;;5.43;4.20;;;23.30;66.60;;;;;;5035683;28;20082;-71
2021/07/22 06:27:23;;;;;;;5.55;4.47;;;23.40;66.70;;;;;;5035767;28;20029;-70
2021/07/22 06:29:49;;;;;;;4.80;3.78;;;23.50;66.60;;;;;;5035613;28;20028;-71
2021/07/22 06:32:15;;;;;;;6.55;4.18;;;23.60;66.30;;;;;;5035722;28;20037;-71
2021/07/22 06:34:40;;;;;;;8.63;4.22;;;23.70;66.40;;;;;;5035453;28;20036;-71
2021/07/22 06:37:06;;;;;;;5.50;3.83;;;23.70;66.20;;;;;;5035713;28;20025;-72
2021/07/22 06:39:33;;;;;;;6.82;4.32;;;23.70;65.90;;;;;;5035504;28;20032;-72
2021/07/22 06:41:59;;;;;;;7.32;3.78;;;23.70;65.90;;;;;;5035266;28;20025;-72
2021/07/22 06:44:27;;;;;;;7.47;3.95;;;23.90;66.10;;;;;;5035392;28;20026;-69
2021/07/22 06:46:52;;;;;;;7.03;3.75;;;24.00;65.70;;;;;;5035267;28;20041;-72
2021/07/22 06:49:18;;;;;;;6.45;4.05;;;24.00;65.20;;;;;;5033816;28;20021;-72
2021/07/22 06:51:44;;;;;;;10.93;4.05;;;24.00;65.00;;;;;;5033966;28;20033;-72
2021/07/22 06:54:10;;;;;;;8.98;3.97;;;24.00;64.90;;;;;;5032628;28;20769;-73
2021/07/22 06:56:36;;;;;;;5.55;3.72;;;24.10;65.00;;;;;;5034786;28;20056;-72
2021/07/22 06:59:01;;;;;;;13.60;3.95;;;24.10;65.00;;;;;;5035324;28;20034;-72
2021/07/22 07:01:27;;;;;;;5.00;3.35;;;24.20;64.90;;;;;;5034530;28;20087;-72
2021/07/22 07:03:53;;;;;;;7.47;3.65;;;24.30;64.70;;;;;;5035046;28;20021;-72
2021/07/22 07:06:18;;;;;;;7.00;3.85;;;24.40;64.90;;;;;;5035200;28;20017;-71
2021/07/22 07:08:44;;;;;;;5.97;3.45;;;24.40;65.00;;;;;;5034558;28;20029;-71
2021/07/22 07:11:10;;;;;;;7.65;3.45;;;24.50;64.90;;;;;;5035388;28;20021;-71
2021/07/22 07:13:35;;;;;;;6.47;3.80;;;24.60;64.60;;;;;;5034709;28;20041;-70
2021/07/22 07:16:06;;;;;;;5.50;3.38;;;24.60;64.30;;;;;;5034735;28;20547;-72
2021/07/22 07:18:33;;;;;;;7.57;3.42;;;24.70;64.20;;;;;;5035163;28;20056;-70
2021/07/22 07:21:05;;;;;;;6.65;3.53;;;24.70;63.90;;;;;;5034543;28;20057;-71
2021/07/22 07:23:32;;;;;;;5.03;3.67;;;24.80;63.70;;;;;;5034233;28;20025;-71
2021/07/22 07:25:58;;;;;;;8.13;3.47;;;24.80;63.70;;;;;;5034461;28;20029;-71
2021/07/22 07:28:24;;;;;;;7.15;3.22;;;24.90;63.30;;;;;;5034880;28;20037;-71
2021/07/22 07:30:50;;;;;;;5.40;3.28;;;24.90;63.10;;;;;;5034421;28;20061;-72
2021/07/22 07:33:16;;;;;;;6.70;3.25;;;25.00;62.60;;;;;;5034691;28;20480;-71
2021/07/22 07:35:42;;;;;;;4.50;3.13;;;25.10;62.30;;;;;;5034091;28;20056;-71
2021/07/22 07:38:08;;;;;;;3.47;3.08;;;25.10;61.80;;;;;;5034149;28;20075;-71
2021/07/22 07:40:34;;;;;;;3.38;3.08;;;25.20;61.60;;;;;;5034164;28;20033;-71
2021/07/22 07:42:59;;;;;;;3.70;2.80;;;25.30;61.20;;;;;;5034231;28;20034;-71
2021/07/22 07:45:25;;;;;;;5.18;3.20;;;25.40;60.80;;;;;;5034101;28;20034;-72
2021/07/22 07:47:52;;;;;;;4.28;3.00;;;25.40;60.50;;;;;;5033887;28;20030;-72
2021/07/22 07:50:17;;;;;;;4.85;3.25;;;25.50;60.50;;;;;;5034347;28;20082;-71
2021/07/22 07:52:44;;;;;;;5.88;2.67;;;25.70;60.40;;;;;;5033095;28;20189;-71
2021/07/22 07:55:10;;;;;;;2.45;2.25;;;25.70;59.50;;;;;;5033862;28;20040;-71
2021/07/22 07:57:35;;;;;;;5.65;2.60;;;25.90;58.90;;;;;;5033830;28;20029;-71
2021/07/22 08:00:01;;;;;;;2.80;2.35;;;26.00;58.40;;;;;;5034262;28;20353;-72
2021/07/22 08:02:27;;;;;;;3.80;2.60;;;26.10;58.20;;;;;;5033609;28;20037;-72
2021/07/22 08:04:55;;;;;;;4.53;2.42;;;26.10;58.30;;;;;;5034316;28;20468;-71
2021/07/22 08:07:21;;;;;;;5.25;2.45;;;26.20;58.30;;;;;;5033302;28;20029;-72
2021/07/22 08:09:47;;;;;;;2.67;2.38;;;26.30;57.80;;;;;;5033375;28;20025;-72
2021/07/22 08:12:15;;;;;;;6.90;2.38;;;26.40;57.20;;;;;;5033251;28;20480;-72
2021/07/22 08:14:41;;;;;;;5.63;2.45;;;26.50;57.10;;;;;;5033146;28;20105;-72
2021/07/22 08:17:07;;;;;;;2.90;2.50;;;26.50;57.00;;;;;;5033396;28;20109;-72
2021/07/22 08:19:33;;;;;;;3.75;2.42;;;26.60;56.80;;;;;;5033907;28;20072;-71
2021/07/22 08:21:59;;;;;;;5.85;2.15;;;26.80;56.10;;;;;;5033768;28;20055;-71
2021/07/22 08:24:25;;;;;;;3.67;2.28;;;26.90;55.40;;;;;;5033375;28;20108;-73
2021/07/22 08:26:51;;;;;;;2.83;2.15;;;27.00;54.80;;;;;;5033465;28;20049;-71
2021/07/22 08:29:17;;;;;;;6.97;2.17;;;27.10;54.70;;;;;;5033309;28;20029;-71
2021/07/22 08:31:42;;;;;;;6.95;2.22;;;27.30;54.70;;;;;;5033096;28;20116;-71
2021/07/22 08:34:09;;;;;;;3.65;2.67;;;27.40;54.50;;;;;;5033258;28;20487;-70
2021/07/22 08:36:34;;;;;;;4.20;2.50;;;27.50;54.40;;;;;;5033312;28;20029;-71
2021/07/22 08:39:00;;;;;;;4.15;2.10;;;27.70;53.90;;;;;;5033350;28;20032;-71
2021/07/22 08:41:26;;;;;;;3.00;2.25;;;27.80;53.60;;;;;;5033587;28;20113;-73
2021/07/22 08:43:52;;;;;;;3.25;2.00;;;28.00;53.30;;;;;;5033350;28;20380;-71
2021/07/22 08:46:20;;;;;;;6.22;2.17;;;28.10;52.80;;;;;;5032925;28;20030;-70
2021/07/22 08:48:46;;;;;;;2.80;2.00;;;28.20;52.60;;;;;;5033122;28;20599;-72
2021/07/22 08:51:12;;;;;;;4.32;2.55;;;28.40;52.20;;;;;;5033271;28;20031;-71
2021/07/22 08:53:40;;;;;;;2.85;2.30;;;28.50;51.30;;;;;;5033004;28;20040;-72
2021/07/22 08:56:07;;;;;;;3.03;1.98;;;28.60;50.80;;;;;;5033543;28;20070;-72
2021/07/22 08:58:36;;;;;;;4.50;2.35;;;28.80;50.40;;;;;;5033215;28;20064;-72
2021/07/22 09:01:04;;;;;;;6.93;2.78;;;28.90;50.30;;;;;;5032876;28;20062;-72
2021/07/22 09:03:29;;;;;;;6.55;2.97;;;29.20;50.50;;;;;;5032780;28;20029;-72
2021/07/22 09:05:56;;;;;;;7.28;2.40;;;29.40;49.80;;;;;;5033039;28;20388;-72
2021/07/22 09:08:21;;;;;;;3.08;2.47;;;29.60;49.20;;;;;;5033079;28;20108;-72
2021/07/22 09:11:08;;;;;;;2.80;2.10;;;29.80;48.50;;;;;;5032767;28;20449;-72
2021/07/22 09:13:35;;;;;;;2.03;1.88;;;30.00;48.30;;;;;;5032807;28;20045;-73
2021/07/22 09:16:00;;;;;;;2.70;2.30;;;30.20;47.80;;;;;;5033090;28;20029;-71
2021/07/22 09:18:31;;;;;;;2.20;2.00;;;30.30;47.10;;;;;;5032788;28;20075;-72
2021/07/22 09:20:57;;;;;;;4.68;2.38;;;30.40;46.70;;;;;;5032734;28;20531;-73
2021/07/22 09:23:25;;;;;;;2.40;2.20;;;30.50;46.70;;;;;;5032901;28;20051;-70
2021/07/22 09:25:53;;;;;;;3.42;2.00;;;30.80;46.40;;;;;;5032790;28;20088;-71
2021/07/22 09:28:26;;;;;;;2.30;2.10;;;31.00;46.00;;;;;;5032941;28;20033;-71
2021/07/22 09:30:59;;;;;;;2.97;2.20;;;31.20;45.80;;;;;;5032878;28;20083;-71
2021/07/22 09:33:40;;;;;;;3.42;2.08;;;31.40;45.90;;;;;;5033169;28;20037;-73
2021/07/22 09:36:08;;;;;;;2.38;2.17;;;31.70;45.50;;;;;;5032913;28;20044;-71
2021/07/22 09:38:34;;;;;;;3.78;2.30;;;31.90;45.30;;;;;;5020392;28;20041;-71
2021/07/22 09:41:00;;;;;;;4.28;2.30;;;32.00;45.10;;;;;;5006293;28;20033;-71
2021/07/22 09:43:39;;;;;;;3.78;2.33;;;32.20;44.80;;;;;;5011522;28;20144;-71
2021/07/22 09:46:05;;;;;;;4.85;2.72;;;32.50;44.40;;;;;;5013587;28;20037;-73
2021/07/22 09:48:31;;;;;;;3.25;2.15;;;32.70;43.90;;;;;;5012465;28;20431;-72
2021/07/22 09:50:57;;;;;;;2.35;2.15;;;32.80;43.40;;;;;;5012757;28;20026;-72
2021/07/22 09:53:25;;;;;;;2.28;2.03;;;33.00;43.30;;;;;;5012491;28;20088;-72
2021/07/22 09:55:56;;;;;;;2.30;2.10;;;33.10;42.90;;;;;;5013410;28;20143;-71
2021/07/22 09:58:23;;;;;;;4.53;2.38;;;33.30;42.70;;;;;;5012880;28;20041;-71
2021/07/22 10:00:50;;;;;;;2.38;2.17;;;33.60;42.70;;;;;;5012634;28;20022;-71
2021/07/22 10:03:19;;;;;;;2.65;2.00;;;33.70;42.30;;;;;;5012239;28;20495;-73
2021/07/22 10:06:04;;;;;;;2.20;2.00;;;33.90;42.30;;;;;;5012450;28;20026;-71
2021/07/22 10:08:33;;;;;;;4.75;2.20;;;34.10;41.70;;;;;;5012828;28;20349;-72
2021/07/22 10:10:59;;;;;;;4.05;2.20;;;34.30;42.00;;;;;;5012896;28;20041;-71
2021/07/22 10:13:44;;;;;;;7.88;2.80;;;34.40;41.70;;;;;;5012337;28;20033;-71
2021/07/22 10:16:14;;;;;;;4.70;2.35;;;34.70;41.70;;;;;;5014167;28;20530;-71
2021/07/22 10:18:47;;;;;;;2.97;2.30;;;34.90;41.40;;;;;;5015809;28;20022;-72
2021/07/22 10:21:14;;;;;;;3.40;2.00;;;35.00;41.20;;;;;;5015964;28;20080;-73
2021/07/22 10:23:41;;;;;;;3.53;2.22;;;35.20;41.70;;;;;;5015930;28;20126;-72
2021/07/22 10:26:07;;;;;;;2.47;2.25;;;35.20;41.30;;;;;;5015985;28;20452;-72
2021/07/22 10:28:33;;;;;;;3.65;2.00;;;35.30;40.80;;;;;;5015721;28;20080;-75
2021/07/22 10:31:04;;;;;;;3.50;2.30;;;35.50;40.50;;;;;;5015749;28;20022;-72
2021/07/22 10:33:30;;;;;;;3.72;2.53;;;35.40;39.80;;;;;;5015965;28;20428;-72
2021/07/22 10:35:57;;;;;;;4.05;2.40;;;35.60;40.10;;;;;;5015815;28;20045;-71
2021/07/22 10:45:18;;;;;;;2.35;2.15;;;36.30;39.70;;;;;;5015399;28;20034;-72
2021/07/22 10:47:59;;;;;;;9.73;2.47;;;36.40;39.50;;;;;;5015538;28;20034;-73
2021/07/22 10:50:42;;;;;;;4.28;2.08;;;36.60;39.60;;;;;;5015403;28;20037;-73
2021/07/22 10:53:08;;;;;;;3.78;2.08;;;36.30;39.40;;;;;;5015099;28;20081;-73
2021/07/22 10:55:53;;;;;;;3.83;2.40;;;35.70;39.40;;;;;;5015500;28;20026;-74
2021/07/22 10:58:34;;;;;;;2.40;2.20;;;35.40;39.50;;;;;;5015393;28;20037;-72
2021/07/22 11:01:01;;;;;;;2.90;2.00;;;35.70;39.50;;;;;;5015358;28;20052;-73
2021/07/22 11:03:38;;;;;;;9.63;2.10;;;36.10;38.20;;;;;;5015906;28;20026;-72
2021/07/22 11:06:13;;;;;;;3.40;2.22;;;36.40;37.80;;;;;;5015368;28;20022;-71
2021/07/22 11:08:43;;;;;;;2.70;2.10;;;36.30;37.90;;;;;;5014868;28;20419;-72
2021/07/22 11:11:14;;;;;;;2.95;1.88;;;36.60;38.10;;;;;;5014704;28;20034;-71
2021/07/22 11:13:46;;;;;;;9.55;1.95;;;37.00;37.90;;;;;;5014130;28;20424;-72
2021/07/22 11:16:24;;;;;;;4.13;2.17;;;37.40;37.20;;;;;;5015059;28;20112;-72
2021/07/22 11:18:55;;;;;;;5.65;2.30;;;37.60;37.00;;;;;;5014597;28;20018;-72
2021/07/22 11:21:23;;;;;;;2.38;2.17;;;37.80;36.80;;;;;;5013410;28;20057;-72
2021/07/22 11:24:05;;;;;;;2.70;2.40;;;38.00;37.00;;;;;;5010997;28;20025;-73
2021/07/22 11:26:32;;;;;;;4.32;2.55;;;38.30;36.70;;;;;;5013334;28;20025;-72
2021/07/22 11:29:00;;;;;;;3.95;2.10;;;38.60;36.50;;;;;;5012946;28;20065;-71
2021/07/22 11:31:30;;;;;;;5.97;2.10;;;38.90;36.30;;;;;;5013166;28;20120;-73
2021/07/22 11:34:01;;;;;;;3.30;2.47;;;38.90;35.90;;;;;;5011238;28;20030;-72
2021/07/22 11:36:26;;;;;;;2.90;2.22;;;39.10;35.80;;;;;;5013251;28;20452;-72
2021/07/22 11:38:53;;;;;;;5.90;2.42;;;39.30;35.90;;;;;;5013342;28;20068;-72
2021/07/22 11:41:20;;;;;;;2.50;2.20;;;39.40;35.40;;;;;;5013409;28;20030;-72
2021/07/22 11:43:52;;;;;;;2.28;2.17;;;39.70;35.50;;;;;;5014094;28;20380;-72
2021/07/22 11:46:36;;;;;;;1.90;1.80;;;39.90;35.20;;;;;;5013154;28;20026;-73
2021/07/22 11:49:11;;;;;;;3.55;2.20;;;40.20;34.70;;;;;;5011358;28;20117;-72
2021/07/22 11:51:39;;;;;;;4.10;1.95;;;40.40;34.50;;;;;;5012918;28;20022;-73
2021/07/22 11:54:05;;;;;;;2.10;1.83;;;40.60;34.70;;;;;;5012869;28;20151;-73
2021/07/22 11:56:36;;;;;;;2.95;2.05;;;40.80;34.30;;;;;;5012115;28;20426;-73
2021/07/22 11:59:08;;;;;;;4.88;2.08;;;41.10;34.50;;;;;;5010478;28;20018;-71
2021/07/22 12:01:45;;;;;;;3.83;2.22;;;41.50;34.20;;;;;;5012230;28;20111;-72
2021/07/22 12:04:11;;;;;;;4.80;2.10;;;41.70;33.90;;;;;;5014180;28;20034;-72
2021/07/22 12:06:37;;;;;;;2.78;2.30;;;41.90;33.70;;;;;;5013787;28;20030;-72
2021/07/22 12:09:08;;;;;;;3.20;2.05;;;41.20;33.40;;;;;;5014138;28;20076;-72
2021/07/22 12:11:43;;;;;;;3.92;2.72;;;39.90;33.10;;;;;;5013880;28;20022;-70
2021/07/22 12:14:09;;;;;;;3.63;2.30;;;39.50;34.10;;;;;;5013816;28;20030;-71
2021/07/22 12:16:35;;;;;;;4.30;2.15;;;39.90;34.30;;;;;;5012747;28;20080;-71
2021/07/22 12:19:01;;;;;;;2.40;2.20;;;39.90;34.30;;;;;;5013883;28;20052;-72
2021/07/22 12:21:29;;;;;;;2.63;2.40;;;39.90;34.10;;;;;;5013869;28;20081;-72
2021/07/22 12:24:14;;;;;;;2.80;2.30;;;40.00;33.80;;;;;;5013944;28;20053;-72
2021/07/22 12:26:40;;;;;;;3.35;2.50;;;40.20;33.90;;;;;;5012275;28;20030;-72
2021/07/22 12:29:08;;;;;;;2.60;2.40;;;40.20;33.60;;;;;;5012110;28;20029;-73
2021/07/22 12:31:39;;;;;;;5.78;2.63;;;40.40;33.50;;;;;;5011870;28;20523;-73
2021/07/22 12:34:06;;;;;;;3.55;2.15;;;40.90;33.80;;;;;;5012106;28;20034;-73
2021/07/22 12:36:33;;;;;;;4.28;2.33;;;41.40;33.50;;;;;;5012015;28;20133;-73
2021/07/22 12:42:20;;;;;;;2.63;2.30;;;42.00;32.60;;;;;;5011274;28;20049;-72
2021/07/22 12:44:51;;;;;;;4.18;2.03;;;42.20;32.60;;;;;;5011462;28;20026;-73
2021/07/22 12:47:30;;;;;;;3.95;2.08;;;42.20;33.00;;;;;;5011545;28;20037;-73
2021/07/22 12:49:57;;;;;;;2.80;2.22;;;42.10;32.10;;;;;;5013327;28;20033;-72
2021/07/22 12:52:23;;;;;;;3.15;2.22;;;42.10;32.20;;;;;;5013598;28;20045;-72
2021/07/22 12:54:48;;;;;;;2.63;2.30;;;42.10;32.40;;;;;;5013565;28;20377;-72
2021/07/22 12:57:33;;;;;;;2.22;1.90;;;42.20;32.20;;;;;;5013508;28;20461;-71
2021/07/22 13:00:15;;;;;;;2.95;2.20;;;42.40;32.00;;;;;;5013536;28;20033;-71